Latest Weather Observations for Portland Harbour

IDV60801

Issued at 2:02 pm EST Wednesday 31 August 2016 (issued every 30 minutes, with the page automatically refreshed every 10 minutes)

About weather observations | Map of weather stations | Latest weather observations for VIC | Other Formats
Station Details ID: 090192 Name: PORTLAND NTC AWS Lat: -38.34 Lon: 141.61 Height: 0.0 m
Data from the previous 72 hours. | See also: Recent months for locations in Victoria
Date/Time
EST
Temp
°C
App
Temp
°C
Dew
Point
°C
Rel
Hum
%
Delta-T
°C
Wind Press
QNH
hPa
Press
MSL
hPa
Rain since
9am
mm
Dir  Spd
km/h
Gust
km/h
Spd
kts
Gust
kts
31/02:00pm 13.7 - - - - WSW 20 35 11 19 1012.8 1012.8 -
31/01:30pm 15.1 - - - - W 33 44 18 24 1012.5 1012.5 -
31/01:00pm 14.8 - - - - W 24 39 13 21 1012.7 1012.7 -
31/12:30pm 14.7 - - - - W 30 46 16 25 1012.7 1012.7 -
31/12:00pm 14.7 - - - - WNW 32 46 17 25 1012.8 1012.8 -
31/11:30am 14.7 - - - - W 33 46 18 25 1012.7 1012.7 -
31/11:05am 14.4 - - - - W 28 46 15 25 1012.7 1012.7 -
31/11:00am 14.4 - - - - W 24 35 13 19 1012.7 1012.7 -
31/10:30am 12.8 - - - - W 32 50 17 27 1012.9 1012.9 -
31/10:23am 13.7 - - - - W 28 50 15 27 1012.7 1012.7 -
31/10:00am 13.7 - - - - W 20 33 11 18 1012.7 1012.7 -
31/09:30am 13.5 - - - - W 22 35 12 19 1012.7 1012.7 -
31/09:00am 13.2 - - - - NW 15 26 8 14 1012.6 1012.6 -
31/08:30am 12.5 - - - - WNW 17 26 9 14 1012.2 1012.2 -
31/08:00am 12.3 - - - - WNW 17 24 9 13 1011.9 1011.9 -
31/07:30am 12.8 - - - - NW 17 30 9 16 1011.4 1011.4 -
31/07:00am 12.7 - - - - NNW 17 24 9 13 1011.1 1011.1 -
31/06:30am 12.9 - - - - NW 15 22 8 12 1010.6 1010.6 -
31/06:00am 13.0 - - - - NW 17 30 9 16 1010.3 1010.3 -
31/05:30am 13.3 - - - - NW 19 33 10 18 1010.0 1010.0 -
31/05:00am 13.3 - - - - NW 17 28 9 15 1009.8 1009.8 -
31/04:30am 13.5 - - - - NNW 19 30 10 16 1009.4 1009.4 -
31/04:00am 13.5 - - - - NW 19 32 10 17 1009.4 1009.4 -
31/03:30am 13.4 - - - - NW 19 28 10 15 1009.3 1009.3 -
31/03:00am 13.3 - - - - NNW 17 24 9 13 1009.3 1009.3 -
31/02:30am 13.3 - - - - NNW 22 30 12 16 1009.6 1009.6 -
31/02:00am 13.3 - - - - NNW 15 20 8 11 1009.9 1009.9 -
31/01:30am 13.0 - - - - NW 9 13 5 7 1010.3 1010.3 -
31/01:00am 13.0 - - - - NNW 13 19 7 10 1010.5 1010.5 -
31/12:30am 12.9 - - - - NNW 13 17 7 9 1010.6 1010.6 -
31/12:00am 12.6 - - - - N 9 11 5 6 1010.5 1010.5 -
 
Date/Time
EST
Temp
°C
App
Temp
°C
Dew
Point
°C
Rel
Hum
%
Delta-T
°C
Wind Press
QNH
hPa
Press
MSL
hPa
Rain since
9am
mm
Dir  Spd
km/h
Gust
km/h
Spd
kts
Gust
kts
30/11:30pm 12.6 - - - - NNE 11 13 6 7 1010.8 1010.8 -
30/11:00pm 12.8 - - - - NNE 11 13 6 7 1010.9 1010.9 -
30/10:30pm 13.2 - - - - NNE 11 13 6 7 1011.2 1011.2 -
30/10:00pm 13.3 - - - - NNE 7 9 4 5 1011.2 1011.2 -
30/09:30pm 13.4 - - - - N 2 4 1 2 1011.4 1011.4 -
30/09:00pm 13.6 - - - - NNW 7 9 4 5 1011.4 1011.4 -
30/08:30pm 13.3 - - - - NNW 7 13 4 7 1011.3 1011.3 -
30/08:00pm 13.4 - - - - NNW 9 13 5 7 1011.1 1011.1 -
30/07:30pm 13.6 - - - - NNW 11 13 6 7 1011.1 1011.1 -
30/07:00pm 13.8 - - - - NNW 13 19 7 10 1011.0 1011.0 -
30/06:30pm 14.0 - - - - NNW 19 26 10 14 1010.9 1010.9 -
30/06:00pm 14.0 - - - - NNW 17 24 9 13 1010.6 1010.6 -
30/05:30pm 13.8 - - - - NNW 15 24 8 13 1010.2 1010.2 -
30/05:00pm 13.7 - - - - N 19 26 10 14 1010.0 1010.0 -
30/04:30pm 13.6 - - - - N 19 24 10 13 1010.2 1010.2 -
30/04:00pm 13.5 - - - - NNW 20 28 11 15 1010.4 1010.4 -
30/03:30pm 14.4 - - - - NNW 20 28 11 15 1010.4 1010.4 -
30/03:00pm 14.4 - - - - NNW 20 26 11 14 1010.3 1010.3 -
30/02:30pm 14.3 - - - - NNW 32 39 17 21 1010.4 1010.4 -
30/02:00pm 14.9 - - - - N 22 32 12 17 1010.7 1010.7 -
30/01:30pm 14.5 - - - - N 19 26 10 14 1010.9 1010.9 -
30/01:00pm 14.7 - - - - N 20 28 11 15 1011.6 1011.6 -
30/12:30pm 14.2 - - - - NNE 17 24 9 13 1012.0 1012.0 -
30/12:00pm 13.8 - - - - NE 17 20 9 11 1012.5 1012.5 -
30/11:30am 13.4 - - - - NE 19 24 10 13 1012.9 1012.9 -
30/11:00am 13.2 - - - - NE 20 24 11 13 1013.3 1013.3 -
30/10:30am 13.2 - - - - NNE 19 22 10 12 1013.6 1013.6 -
30/10:00am 12.8 - - - - NNE 20 26 11 14 1014.1 1014.1 -
30/09:30am 12.9 - - - - N 30 37 16 20 1014.7 1014.7 -
30/09:00am 12.4 - - - - NNE 28 35 15 19 1014.8 1014.8 -
30/08:30am 12.3 - - - - NNE 28 32 15 17 1014.8 1014.8 -
30/08:00am 12.3 - - - - NNE 24 28 13 15 1014.8 1014.8 -
30/07:30am 12.2 - - - - NNE 24 28 13 15 1015.2 1015.2 -
30/07:00am 12.2 - - - - NNE 28 33 15 18 1015.4 1015.4 -
30/06:30am 12.1 - - - - NNE 28 35 15 19 1015.7 1015.7 -
30/06:00am 12.2 - - - - NNE 24 30 13 16 1015.9 1015.9 -
30/05:30am 12.4 - - - - NE 26 30 14 16 1015.9 1015.9 -
30/05:00am 12.4 - - - - NE 26 32 14 17 1016.1 1016.1 -
30/04:30am 12.7 - - - - NE 26 32 14 17 1016.2 1016.2 -
30/04:00am 12.7 - - - - NE 26 32 14 17 1016.1 1016.1 -
30/03:30am 12.9 - - - - NE 24 28 13 15 1016.3 1016.3 -
30/03:00am 13.2 - - - - NNE 24 30 13 16 1016.8 1016.8 -
30/02:30am 14.2 - - - - NNE 26 32 14 17 1017.3 1017.3 -
30/02:00am 14.8 - - - - N 20 24 11 13 1017.2 1017.2 -
30/01:30am 14.3 - - - - ENE 17 19 9 10 1017.1 1017.1 -
30/01:00am 14.4 - - - - ENE 20 24 11 13 1016.5 1016.5 -
30/12:30am 14.4 - - - - ENE 22 26 12 14 1016.3 1016.3 -
30/12:00am 14.1 - - - - ENE 20 22 11 12 1016.7 1016.7 -
 
Date/Time
EST
Temp
°C
App
Temp
°C
Dew
Point
°C
Rel
Hum
%
Delta-T
°C
Wind Press
QNH
hPa
Press
MSL
hPa
Rain since
9am
mm
Dir  Spd
km/h
Gust
km/h
Spd
kts
Gust
kts
29/11:30pm 14.5 - - - - ENE 20 24 11 13 1017.3 1017.3 -
29/11:00pm 14.6 - - - - ENE 22 26 12 14 1017.3 1017.3 -
29/10:30pm 14.6 - - - - ENE 17 20 9 11 1017.7 1017.7 -
29/10:00pm 14.7 - - - - NE 17 20 9 11 1017.7 1017.7 -
29/09:30pm 14.6 - - - - ENE 19 22 10 12 1017.9 1017.9 -
29/09:00pm 14.6 - - - - ENE 19 22 10 12 1017.8 1017.8 -
29/08:30pm 14.7 - - - - ENE 20 24 11 13 1017.7 1017.7 -
29/08:00pm 15.1 - - - - ENE 26 30 14 16 1017.4 1017.4 -
29/07:30pm 15.4 - - - - ENE 22 26 12 14 1017.4 1017.4 -
29/07:00pm 15.3 - - - - ENE 17 20 9 11 1017.5 1017.5 -
29/06:30pm 16.4 - - - - NE 17 22 9 12 1017.3 1017.3 -
29/06:00pm 16.4 - - - - NNE 17 20 9 11 1017.2 1017.2 -
29/05:30pm 16.9 - - - - NE 26 30 14 16 1016.5 1016.5 -
29/05:00pm 17.1 - - - - NNE 26 30 14 16 1016.5 1016.5 -
29/04:30pm 16.7 - - - - NNE 22 28 12 15 1016.7 1016.7 -
29/04:00pm 17.5 - - - - NNE 26 37 14 20 1016.6 1016.6 -
29/03:30pm 17.0 - - - - NNE 24 30 13 16 1017.0 1017.0 -
29/03:00pm 17.1 - - - - NNE 28 35 15 19 1017.4 1017.4 -
29/02:30pm 16.6 - - - - NNE 24 28 13 15 1017.5 1017.5 -
29/02:00pm 17.4 - - - - NNE 28 35 15 19 1017.7 1017.7 -
29/01:30pm 17.1 - - - - NNE 28 37 15 20 1018.1 1018.1 -
29/01:00pm 16.5 - - - - NNE 28 35 15 19 1018.7 1018.7 -
29/12:30pm 16.3 - - - - NNE 28 32 15 17 1019.0 1019.0 -
29/12:00pm 16.0 - - - - NNE 30 33 16 18 1019.3 1019.3 -
29/11:30am 15.7 - - - - NNE 26 32 14 17 1019.5 1019.5 -
29/11:00am 15.5 - - - - NNE 24 33 13 18 1019.9 1019.9 -
29/10:30am 15.0 - - - - NNE 24 30 13 16 1020.2 1020.2 -
29/10:00am 14.4 - - - - N 24 33 13 18 1020.5 1020.5 -
29/09:30am 14.0 - - - - NNE 24 32 13 17 1020.7 1020.7 -
29/09:00am 13.5 - - - - NNE 17 24 9 13 1020.8 1020.8 -
29/08:30am 13.1 - - - - NNE 15 19 8 10 1020.7 1020.7 -
29/08:00am 12.4 - - - - N 17 22 9 12 1020.4 1020.4 -
29/07:30am 12.1 - - - - NNE 15 19 8 10 1020.3 1020.3 -
29/07:00am 12.1 - - - - NNE 13 17 7 9 1020.0 1020.0 -
29/06:30am 12.3 - - - - NNE 11 17 6 9 1019.7 1019.7 -
29/06:00am 12.4 - - - - NNE 13 19 7 10 1019.5 1019.5 -
29/05:30am 12.3 - - - - NNE 13 17 7 9 1019.4 1019.4 -
29/05:00am 12.3 - - - - NNE 13 15 7 8 1019.2 1019.2 -
29/04:30am 12.2 - - - - NNE 13 17 7 9 1019.2 1019.2 -
29/04:00am 12.0 - - - - N 11 13 6 7 1019.2 1019.2 -
29/03:30am 12.3 - - - - N 9 11 5 6 1019.1 1019.1 -
29/03:00am 12.3 - - - - N 7 11 4 6 1019.3 1019.3 -
29/02:30am 12.4 - - - - N 9 11 5 6 1019.2 1019.2 -
29/02:00am 11.1 - - - - CALM 0 2 0 1 1019.3 1019.3 -
29/01:30am 11.9 - - - - NNW 6 7 3 4 1019.1 1019.1 -
29/01:00am 12.3 - - - - N 6 9 3 5 1019.0 1019.0 -
29/12:30am 11.0 - - - - CALM 0 2 0 1 1019.1 1019.1 -
29/12:00am 10.9 - - - - CALM 0 2 0 1 1019.1 1019.1 -
 
Date/Time
EST
Temp
°C
App
Temp
°C
Dew
Point
°C
Rel
Hum
%
Delta-T
°C
Wind Press
QNH
hPa
Press
MSL
hPa
Rain since
9am
mm
Dir  Spd
km/h
Gust
km/h
Spd
kts
Gust
kts
28/11:30pm 10.7 - - - - SW 2 4 1 2 1019.3 1019.3 -
28/11:00pm 11.9 - - - - CALM 0 2 0 1 1019.3 1019.3 -
28/10:30pm 12.8 - - - - CALM 0 0 0 0 1019.4 1019.4 -
28/10:00pm 13.4 - - - - NE 4 6 2 3 1019.5 1019.5 -
28/09:30pm 13.5 - - - - ENE 9 13 5 7 1019.1 1019.1 -
28/09:00pm 13.6 - - - - ENE 9 11 5 6 1018.8 1018.8 -
28/08:30pm 13.6 - - - - ESE 6 6 3 3 1018.8 1018.8 -
28/08:00pm 13.8 - - - - ENE 4 6 2 3 1018.6 1018.6 -
28/07:30pm 14.1 - - - - ENE 7 11 4 6 1018.5 1018.5 -
28/07:00pm 14.0 - - - - ENE 2 4 1 2 1018.2 1018.2 -
28/06:30pm 14.3 - - - - ESE 9 13 5 7 1017.9 1017.9 -
28/06:00pm 14.4 - - - - SE 13 15 7 8 1017.5 1017.5 -
28/05:30pm 14.5 - - - - SE 7 9 4 5 1017.3 1017.3 -
28/05:00pm 14.5 - - - - ESE 9 15 5 8 1017.1 1017.1 -
28/04:30pm 14.4 - - - - ESE 11 15 6 8 1017.1 1017.1 -
28/04:00pm 14.6 - - - - ESE 11 13 6 7 1017.4 1017.4 -
28/03:30pm 14.8 - - - - ESE 11 13 6 7 1017.4 1017.4 -
28/03:00pm 14.7 - - - - ESE 13 15 7 8 1017.4 1017.4 -
28/02:30pm 14.7 - - - - ESE 13 15 7 8 1017.5 1017.5 -

Other Formats:

Comma delimited format used in spreadsheet applications
http://www.bom.gov.au/fwo/IDV60801/IDV60801.95826.axf

JavaScript Object Notation format (JSON) in row-major order
http://www.bom.gov.au/fwo/IDV60801/IDV60801.95826.json